Bismarck, ND

2:26 AM CDT on July 29, 2016 (GMT -0500)
Pacific Avenue Bismarck | | Change Station

Elev 1722 ft 46.83 °N, 100.75 °W | Updated 1 minute ago

Mostly Cloudy
Mostly Cloudy
59.5 °F
Feels Like 59.5 °F
N
0.0
Wind Variable Wind from West

Today
High -- | Low -- °F
--% Chance of Precip.
Yesterday
High -- | Low -- °F
Precip. -- in
Pressure 30.11 in
Visibility 10.0 miles
Clouds Few 7000 ft
Mostly Cloudy 8500 ft
Dew Point 55 °F
Humidity 86%
Rainfall 0.00 in
Snow Depth Not available.
6:20 AM 9:18 PM
Waning Crescent, 24% visible
METAR KBIS 290652Z AUTO 04004KT 10SM FEW070 BKN085 18/14 A3012 RMK AO2 SLP194 T01780139
Pressure 30.11 in
Visibility 10.0 miles
Clouds Few 7000 ft
Mostly Cloudy 8500 ft
Dew Point 55 °F
Humidity 86%
Rainfall 0.00 in
Snow Depth Not available.
6:20 AM 9:18 PM
Waning Crescent, 24% visible
METAR KBIS 290652Z AUTO 04004KT 10SM FEW070 BKN085 18/14 A3012 RMK AO2 SLP194 T01780139

10-Day Weather Forecast

Almanac

Astronomy

Jul. 29, 2016 Rise Set
Actual Time
Civil Twilight
Nautical Twilight
Astronomical Twilight
Moon
Length of Visible Light
Length of Day
Tomorrow will be .
, % of the Moon is Illuminated

Today's Extremes

State Highs State Lows

Community

WunderPhotos

Upload Photos

1,928,302 photos uploaded!

WunderBlog® & News

Nearby

Air Quality

  Air Quality AQ Index Pollutant
Not available.

Snow Depth

Station Depth Elevation

Earthquake Activity

City Distance Mag. Time & Date
Minimum magnitude displayed is 2.5.

Coastal Water Temperatures

Place Temperature

Stations

Nearby Weather Stations

Station Location Temp. Windchill Dew Point Humidity Wind Precip. Elev Updated Type
                   

Watches & Warnings

There are currently no watches in effect.